Ogunquit, ME

9:25 AM EST on December 25, 2014 (GMT -0500)
York Cliffs | Change Station
CLOSE
Current Station
Personal Weather Station
Location: York, ME
Elevation: 36 ft
Nearby Weather Stations
Active Advisory: Coastal Flood Statement Active Notice: Public Information Statement

Elev 36 ft 43.20 °N, 70.59 °W | Updated 23 seconds ago

Rain
Rain
49.3 °F
Feels Like 49 °F
N
1.8
Wind Variable Wind from West
Gusts 2.5 mph

Today
High -- | Low -- °F
--% Chance of Precip.
Yesterday
High -- | Low -- °F
Precip. -- in
7:13 AM 4:12 PM
Waxing Crescent, 16% visible
Pressure 29.46 in
Visibility 10.0 miles
Clouds Mostly Cloudy 4300 ft
Mostly Cloudy 5000 ft
Windchill 49 °F
Dew Point 49 °F
Humidity 99%
Rainfall 0.18 in
Snow Depth Not available.
UV 1 out of 12
Pollen .10 out of 12
Air Quality Not available.
Flu Activity Not available.
METAR KSFM 251415Z AUTO 23009KT 10SM BKN043 BKN050 08/06 A2946 RMK AO1 P0001

More Conditions Fewer Conditions

Pressure 29.46 in
Visibility 10.0 miles
Clouds Mostly Cloudy 4300 ft
Mostly Cloudy 5000 ft
Windchill 49 °F
Dew Point 49 °F
Humidity 99%
Rainfall 0.18 in
Snow Depth Not available.
UV 1 out of 12
Pollen .10 out of 12
Air Quality Not available.
Flu Activity Not available.
METAR KSFM 251415Z AUTO 23009KT 10SM BKN043 BKN050 08/06 A2946 RMK AO1 P0001

More Conditions Fewer Conditions

10-Day Weather Forecast

Almanac

Astronomy

Dec. 25, 2014 Rise Set
Actual Time
Civil Twilight
Nautical Twilight
Astronomical Twilight
Moon
Length of Visible Light
Length of Day
Tomorrow will be .
, % of the Moon is Illuminated

Today's Extremes

State Highs State Lows

Community

WunderPhotos

Upload Photos

1,780,276 photos uploaded!

WunderBlogs® & News

Nearby

Air Quality

  Air Quality AQ Index Pollutant
Not available.

Snow Depth

Station Depth Elevation

Earthquake Activity

City Distance Mag. Time & Date
Minimum magnitude displayed is 2.5.

Coastal Water Temperatures

Place Temperature

Nearby Weather Stations